createdAt,value
2018-05-19T00:02:23.155Z,11.50
2018-05-19T00:04:51.301Z,11.50
2018-05-19T00:07:19.507Z,11.40
2018-05-19T00:09:46.951Z,11.40
2018-05-19T00:12:14.387Z,11.40
2018-05-19T00:14:42.607Z,11.30
2018-05-19T00:17:10.039Z,11.30
2018-05-19T00:19:37.525Z,11.30
2018-05-19T00:22:04.961Z,11.30
2018-05-19T00:24:32.394Z,11.30
2018-05-19T00:27:00.615Z,11.30
2018-05-19T00:29:28.041Z,11.20
2018-05-19T00:31:55.535Z,11.30
2018-05-19T00:34:22.971Z,11.30
2018-05-19T00:36:50.415Z,11.30
2018-05-19T00:39:17.855Z,11.40
2018-05-19T00:41:46.058Z,11.40
2018-05-19T00:44:13.503Z,11.30
2018-05-19T00:46:40.943Z,11.30
2018-05-19T00:49:08.431Z,11.40
2018-05-19T00:51:35.887Z,11.30
2018-05-19T00:54:03.353Z,11.30
2018-05-19T00:56:30.803Z,11.30
2018-05-19T00:58:58.261Z,11.30
2018-05-19T01:01:25.699Z,11.30
2018-05-19T01:03:53.195Z,11.30
2018-05-19T01:06:20.639Z,11.30
2018-05-19T01:08:48.134Z,11.20
2018-05-19T01:11:15.672Z,11.20
2018-05-19T01:13:43.098Z,11.20
2018-05-19T01:16:10.542Z,11.10
2018-05-19T01:18:37.970Z,11.10
2018-05-19T01:21:05.512Z,11.10
2018-05-19T01:23:33.055Z,11.10
2018-05-19T01:26:00.478Z,11.00
2018-05-19T01:28:27.924Z,11.00
2018-05-19T01:30:55.362Z,11.00
2018-05-19T01:33:23.591Z,11.00
2018-05-19T01:35:51.027Z,11.00
2018-05-19T01:38:18.507Z,10.90
2018-05-19T01:40:45.955Z,10.90
2018-05-19T01:43:13.418Z,10.90
2018-05-19T01:45:41.622Z,10.80
2018-05-19T01:48:09.058Z,10.80
2018-05-19T01:50:36.487Z,10.80
2018-05-19T01:53:03.928Z,10.80
2018-05-19T01:55:32.138Z,10.80
2018-05-19T01:57:59.587Z,10.80
2018-05-19T02:00:27.059Z,10.70
2018-05-19T02:02:54.500Z,10.70
2018-05-19T02:05:21.949Z,10.70
2018-05-19T02:07:49.391Z,10.80
2018-05-19T02:10:17.603Z,10.70
2018-05-19T02:12:45.026Z,10.70
2018-05-19T02:15:12.527Z,10.70
2018-05-19T02:17:40.099Z,10.70
2018-05-19T02:20:07.534Z,10.60
2018-05-19T02:22:34.997Z,10.60
2018-05-19T02:25:02.419Z,10.60
2018-05-19T02:27:29.854Z,10.60
2018-05-19T02:29:58.055Z,10.60
2018-05-19T02:32:25.487Z,10.60
2018-05-19T02:34:53.717Z,10.60
2018-05-19T02:37:21.147Z,10.60
2018-05-19T02:39:48.627Z,10.60
2018-05-19T02:42:16.071Z,10.60
2018-05-19T02:44:43.565Z,10.60
2018-05-19T02:47:11.103Z,10.60
2018-05-19T02:49:38.544Z,10.50
2018-05-19T02:52:06.045Z,10.50
2018-05-19T02:54:33.571Z,10.50
2018-05-19T02:57:01.031Z,10.50
2018-05-19T02:59:28.475Z,10.50
2018-05-19T03:01:55.907Z,10.50
2018-05-19T03:04:24.120Z,10.40
2018-05-19T03:06:51.574Z,10.40
2018-05-19T03:09:19.010Z,10.50
2018-05-19T03:11:46.448Z,10.40
2018-05-19T03:14:14.645Z,10.40
2018-05-19T03:16:42.111Z,10.40
2018-05-19T03:19:09.582Z,10.40
2018-05-19T03:21:37.015Z,10.40
2018-05-19T03:24:04.499Z,10.40
2018-05-19T03:26:31.935Z,10.40
2018-05-19T03:28:59.442Z,10.40
2018-05-19T03:31:26.997Z,10.40
2018-05-19T03:33:54.675Z,10.40
2018-05-19T03:36:22.963Z,10.40
2018-05-19T03:38:51.169Z,10.40
2018-05-19T03:41:18.659Z,10.40
2018-05-19T03:43:46.203Z,10.40
2018-05-19T03:46:13.672Z,10.40
2018-05-19T03:48:41.141Z,10.40
2018-05-19T03:51:08.543Z,10.40
2018-05-19T03:53:35.978Z,10.40
2018-05-19T03:56:04.196Z,10.40
2018-05-19T03:58:43.577Z,10.30
2018-05-19T04:01:22.923Z,10.40
2018-05-19T04:03:51.127Z,10.40
2018-05-19T04:06:18.555Z,10.40
2018-05-19T04:08:46.772Z,10.40
2018-05-19T04:11:14.243Z,10.40
2018-05-19T04:13:41.694Z,10.40
2018-05-19T04:16:09.155Z,10.40
2018-05-19T04:18:36.615Z,10.40
2018-05-19T04:21:04.096Z,10.40
2018-05-19T04:23:31.534Z,10.40
2018-05-19T04:25:59.075Z,10.40
2018-05-19T04:28:26.551Z,10.40
2018-05-19T04:30:53.990Z,10.40
2018-05-19T04:33:21.472Z,10.50
2018-05-19T04:35:48.911Z,10.40
2018-05-19T04:38:16.367Z,10.50
2018-05-19T04:40:43.849Z,10.50
2018-05-19T04:43:11.297Z,10.50
2018-05-19T04:45:38.743Z,10.50
2018-05-19T04:48:06.177Z,10.50
2018-05-19T04:50:33.637Z,10.50
2018-05-19T04:53:01.076Z,10.50
2018-05-19T04:55:29.287Z,10.50
2018-05-19T04:57:56.742Z,10.50
2018-05-19T05:00:24.216Z,10.50
2018-05-19T05:02:51.655Z,10.60
2018-05-19T05:05:19.123Z,10.60
2018-05-19T05:07:46.584Z,10.60
2018-05-19T05:10:14.038Z,10.60
2018-05-19T05:12:41.509Z,10.60
2018-05-19T05:15:09.047Z,10.60
2018-05-19T05:17:36.535Z,10.70
2018-05-19T05:20:03.972Z,10.70
2018-05-19T05:22:31.403Z,10.70
2018-05-19T05:24:58.879Z,10.70
2018-05-19T05:27:26.347Z,10.80
2018-05-19T05:29:53.784Z,10.80
2018-05-19T05:32:21.259Z,10.80
2018-05-19T05:34:48.712Z,10.80
2018-05-19T05:37:16.168Z,10.90
2018-05-19T05:39:43.615Z,10.90
2018-05-19T05:42:11.083Z,10.90
2018-05-19T05:44:38.681Z,11.00
2018-05-19T05:47:06.143Z,11.00
2018-05-19T05:49:33.575Z,11.00
2018-05-19T05:52:01.015Z,11.00
2018-05-19T05:54:29.236Z,11.10
2018-05-19T05:56:56.698Z,11.10
2018-05-19T05:59:24.187Z,11.10
2018-05-19T06:01:51.659Z,11.10
2018-05-19T06:04:19.881Z,11.20
2018-05-19T06:06:47.304Z,11.10
2018-05-19T06:09:15.520Z,11.10
2018-05-19T06:11:42.962Z,11.10
2018-05-19T06:14:10.399Z,11.20
2018-05-19T06:16:37.891Z,11.10
2018-05-19T06:19:05.353Z,11.20
2018-05-19T06:21:32.788Z,11.20
2018-05-19T06:24:00.227Z,11.20
2018-05-19T06:26:27.714Z,11.30
2018-05-19T06:28:55.172Z,11.30
2018-05-19T06:31:22.631Z,11.30
2018-05-19T06:33:50.078Z,11.30
2018-05-19T06:36:17.514Z,11.30
2018-05-19T06:38:45.718Z,11.30
2018-05-19T06:41:13.151Z,11.30
2018-05-19T06:43:40.784Z,11.30
2018-05-19T06:46:08.392Z,11.30
2018-05-19T06:48:35.815Z,11.30
2018-05-19T06:51:04.033Z,11.30
2018-05-19T06:53:31.463Z,11.30
2018-05-19T06:55:58.891Z,11.30
2018-05-19T06:58:27.104Z,11.40
2018-05-19T07:00:54.533Z,11.40
2018-05-19T07:03:22.757Z,11.40
2018-05-19T07:05:50.192Z,11.40
2018-05-19T07:08:17.627Z,11.50
2018-05-19T07:10:45.948Z,11.50
2018-05-19T07:13:13.390Z,11.50
2018-05-19T07:15:40.834Z,11.50
2018-05-19T07:18:08.272Z,11.60
2018-05-19T07:20:36.491Z,11.70
2018-05-19T07:23:03.943Z,11.70
2018-05-19T07:25:31.407Z,11.70
2018-05-19T07:27:58.862Z,11.80
2018-05-19T07:30:26.319Z,11.80
2018-05-19T07:32:53.774Z,11.70
2018-05-19T07:35:21.227Z,11.70
2018-05-19T07:37:48.663Z,11.80
2018-05-19T07:40:16.111Z,11.90
2018-05-19T07:42:44.320Z,12.00
2018-05-19T07:45:11.755Z,12.00
2018-05-19T07:47:39.207Z,12.10
2018-05-19T07:50:06.691Z,12.10
2018-05-19T07:52:34.133Z,12.20
2018-05-19T07:55:01.618Z,12.30
2018-05-19T07:57:29.063Z,12.30
2018-05-19T07:59:56.506Z,12.40
2018-05-19T08:02:23.975Z,12.40
2018-05-19T08:04:51.409Z,12.50
2018-05-19T08:07:18.853Z,12.50
2018-05-19T08:09:46.410Z,12.50
2018-05-19T08:12:13.890Z,12.60
2018-05-19T08:14:41.354Z,12.60
2018-05-19T08:17:09.621Z,12.70
2018-05-19T08:19:37.091Z,12.70
2018-05-19T08:22:04.519Z,12.80
2018-05-19T08:24:31.963Z,12.80
2018-05-19T08:26:59.432Z,12.80
2018-05-19T08:29:26.868Z,12.90
2018-05-19T08:31:54.359Z,13.00
2018-05-19T08:34:21.804Z,13.10
2018-05-19T08:36:49.254Z,13.20
2018-05-19T08:39:16.729Z,13.30
2018-05-19T08:41:44.170Z,13.40
2018-05-19T08:44:11.613Z,13.40
2018-05-19T08:46:39.111Z,13.50
2018-05-19T08:49:06.684Z,13.60
2018-05-19T08:51:34.147Z,13.70
2018-05-19T08:54:01.597Z,13.70
2018-05-19T08:56:29.055Z,13.80
2018-05-19T08:58:56.536Z,13.90
2018-05-19T09:01:24.762Z,14.00
2018-05-19T09:03:52.201Z,14.00
2018-05-19T09:06:20.247Z,14.20
2018-05-19T09:08:48.466Z,14.40
2018-05-19T09:11:15.932Z,14.40
2018-05-19T09:13:43.391Z,14.50
2018-05-19T09:16:10.822Z,14.40
2018-05-19T09:18:38.291Z,14.40
2018-05-19T09:21:05.851Z,14.30
2018-05-19T09:23:33.310Z,14.30
2018-05-19T09:26:00.767Z,14.30
2018-05-19T09:28:28.223Z,14.30
2018-05-19T09:30:55.659Z,14.30
2018-05-19T09:33:23.088Z,14.40
2018-05-19T09:35:51.311Z,14.50
2018-05-19T09:38:18.774Z,14.50
2018-05-19T09:40:46.201Z,14.50
2018-05-19T09:43:13.630Z,14.60
2018-05-19T09:45:41.903Z,14.70
2018-05-19T09:48:09.316Z,14.70
2018-05-19T09:50:36.780Z,14.70
2018-05-19T09:53:04.300Z,14.70
2018-05-19T09:55:31.690Z,14.80
2018-05-19T09:57:59.128Z,14.80
2018-05-19T10:00:26.671Z,14.80
2018-05-19T10:02:54.987Z,14.90
2018-05-19T10:05:22.421Z,14.80
2018-05-19T10:07:49.899Z,14.90
2018-05-19T10:10:17.337Z,14.90
2018-05-19T10:12:44.765Z,15.00
2018-05-19T10:15:13.008Z,15.00
2018-05-19T10:17:40.435Z,15.00
2018-05-19T10:20:07.867Z,15.00
2018-05-19T10:22:35.299Z,15.00
2018-05-19T10:25:03.495Z,15.10
2018-05-19T10:27:30.950Z,15.10
2018-05-19T10:29:59.139Z,15.20
2018-05-19T10:32:26.599Z,15.20
2018-05-19T10:34:54.032Z,15.30
2018-05-19T10:37:22.243Z,15.40
2018-05-19T10:39:49.692Z,15.40
2018-05-19T10:42:17.115Z,15.40
2018-05-19T10:44:45.337Z,15.50
2018-05-19T10:47:12.775Z,15.50
2018-05-19T10:49:40.194Z,15.60
2018-05-19T10:52:07.721Z,15.60
2018-05-19T10:54:35.151Z,15.70
2018-05-19T10:57:02.578Z,15.80
2018-05-19T10:59:30.967Z,15.80
2018-05-19T11:01:58.404Z,15.80
2018-05-19T11:04:26.034Z,15.80
2018-05-19T11:06:53.540Z,15.80
2018-05-19T11:09:21.752Z,15.70
2018-05-19T11:11:49.178Z,15.70
2018-05-19T11:14:16.614Z,15.70
2018-05-19T11:16:44.056Z,15.70
2018-05-19T11:19:11.490Z,15.70
2018-05-19T11:21:38.926Z,15.70
2018-05-19T11:24:06.381Z,15.60
2018-05-19T11:26:33.828Z,15.60
2018-05-19T11:29:01.345Z,15.60
2018-05-19T11:31:29.606Z,15.70
2018-05-19T11:33:57.848Z,15.70
2018-05-19T11:36:25.283Z,15.70
2018-05-19T11:38:53.516Z,15.80
2018-05-19T11:41:20.940Z,15.80
2018-05-19T11:43:48.411Z,15.90
2018-05-19T11:46:15.869Z,15.80
2018-05-19T11:48:43.308Z,15.80
2018-05-19T11:51:10.769Z,15.80
2018-05-19T11:53:38.200Z,15.80
2018-05-19T11:56:06.623Z,15.80
2018-05-19T11:58:34.084Z,15.80
2018-05-19T12:01:01.536Z,16.00
2018-05-19T12:03:28.972Z,16.00
2018-05-19T12:05:56.416Z,16.00
2018-05-19T12:08:23.895Z,16.10
2018-05-19T12:10:51.312Z,16.10
2018-05-19T12:13:19.525Z,16.00
2018-05-19T12:15:47.003Z,16.00
2018-05-19T12:18:14.455Z,16.00
2018-05-19T12:20:41.894Z,16.00
2018-05-19T12:23:09.366Z,16.10
2018-05-19T12:25:36.810Z,16.10
2018-05-19T12:28:04.279Z,16.10
2018-05-19T12:30:31.744Z,16.10
2018-05-19T12:32:59.171Z,16.10
2018-05-19T12:35:26.745Z,16.10
2018-05-19T12:37:54.153Z,16.20
2018-05-19T12:40:21.690Z,16.20
2018-05-19T12:42:49.121Z,16.30
2018-05-19T12:45:16.554Z,16.40
2018-05-19T12:47:44.002Z,16.50
2018-05-19T12:50:12.254Z,16.50
2018-05-19T12:52:39.666Z,16.50
2018-05-19T12:55:07.119Z,16.60
2018-05-19T12:57:34.711Z,16.60
2018-05-19T13:00:02.119Z,16.50
2018-05-19T13:02:30.325Z,16.50
2018-05-19T13:04:57.755Z,16.50
2018-05-19T13:07:25.209Z,16.40
2018-05-19T13:09:52.647Z,16.40
2018-05-19T13:12:20.856Z,16.40
2018-05-19T13:14:48.296Z,16.40
2018-05-19T13:17:15.734Z,16.30
2018-05-19T13:19:43.958Z,16.30
2018-05-19T13:22:11.422Z,16.30
2018-05-19T13:24:38.891Z,16.30
2018-05-19T13:27:06.438Z,16.30
2018-05-19T13:29:33.875Z,16.30
2018-05-19T13:32:01.327Z,16.30
2018-05-19T13:34:28.801Z,16.40
2018-05-19T13:36:56.259Z,16.40
2018-05-19T13:39:23.711Z,16.40
2018-05-19T13:41:51.159Z,16.40
2018-05-19T13:44:18.629Z,16.40
2018-05-19T13:46:46.107Z,16.30
2018-05-19T13:49:13.525Z,16.30
2018-05-19T13:51:40.998Z,16.30
2018-05-19T13:54:08.451Z,16.30
2018-05-19T13:56:35.910Z,16.40
2018-05-19T13:59:03.382Z,16.50
2018-05-19T14:01:30.833Z,16.50
2018-05-19T14:03:58.378Z,16.60
2018-05-19T14:06:25.796Z,16.60
2018-05-19T14:08:53.999Z,16.90
2018-05-19T14:11:21.443Z,16.90
2018-05-19T14:13:48.936Z,16.90
2018-05-19T14:16:16.394Z,17.00
2018-05-19T14:18:43.838Z,17.10
2018-05-19T14:21:11.279Z,17.20
2018-05-19T14:23:38.794Z,17.20
2018-05-19T14:26:06.256Z,17.30
2018-05-19T14:28:33.778Z,17.30
2018-05-19T14:31:01.265Z,17.30
2018-05-19T14:33:28.795Z,17.30
2018-05-19T14:35:56.230Z,17.20
2018-05-19T14:38:23.707Z,17.10
2018-05-19T14:40:51.174Z,17.10
2018-05-19T14:43:18.616Z,17.10
2018-05-19T14:45:46.054Z,17.20
2018-05-19T14:48:13.547Z,17.20
2018-05-19T14:50:41.017Z,17.10
2018-05-19T14:53:08.573Z,17.00
2018-05-19T14:55:36.003Z,17.00
2018-05-19T14:58:03.449Z,17.00
2018-05-19T15:00:30.882Z,17.00
2018-05-19T15:02:59.225Z,16.90
2018-05-19T15:05:26.658Z,16.90
2018-05-19T15:07:54.129Z,16.90
2018-05-19T15:10:21.579Z,16.80
2018-05-19T15:12:49.012Z,16.70
2018-05-19T15:15:16.469Z,16.80
2018-05-19T15:17:43.960Z,16.70
2018-05-19T15:20:11.407Z,16.60
2018-05-19T15:22:38.837Z,16.60
2018-05-19T15:25:06.274Z,16.50
2018-05-19T15:27:34.486Z,16.50
2018-05-19T15:30:01.931Z,16.50
2018-05-19T15:32:29.417Z,16.50
2018-05-19T15:34:56.867Z,16.40
2018-05-19T15:37:24.327Z,16.30
2018-05-19T15:39:51.770Z,16.20
2018-05-19T15:42:19.205Z,16.20
2018-05-19T15:44:46.654Z,16.10
2018-05-19T15:47:14.853Z,16.10
2018-05-19T15:49:42.303Z,16.10
2018-05-19T15:52:09.776Z,16.10
2018-05-19T15:54:37.196Z,16.10
2018-05-19T15:57:05.415Z,16.10
2018-05-19T15:59:32.852Z,16.10
2018-05-19T16:02:00.286Z,16.10
2018-05-19T16:04:28.607Z,16.00
2018-05-19T16:06:56.066Z,16.00
2018-05-19T16:09:23.529Z,16.00
2018-05-19T16:11:50.963Z,15.90
2018-05-19T16:14:18.402Z,15.90
2018-05-19T16:16:45.911Z,15.90
2018-05-19T16:19:13.504Z,15.80
2018-05-19T16:21:40.963Z,15.80
2018-05-19T16:24:09.167Z,15.80
2018-05-19T16:26:36.640Z,15.80
2018-05-19T16:29:04.096Z,15.80
2018-05-19T16:31:31.584Z,15.90
2018-05-19T16:33:59.258Z,15.90
2018-05-19T16:36:26.694Z,15.90
2018-05-19T16:38:54.127Z,15.90
2018-05-19T16:41:21.597Z,15.90
2018-05-19T16:43:49.070Z,15.90
2018-05-19T16:46:16.503Z,15.90
2018-05-19T16:48:43.935Z,15.90
2018-05-19T16:51:11.375Z,15.90
2018-05-19T16:53:39.594Z,15.80
2018-05-19T16:56:07.019Z,15.80
2018-05-19T16:58:34.507Z,15.80
2018-05-19T17:01:01.967Z,15.80
2018-05-19T17:03:29.422Z,15.70
2018-05-19T17:05:56.875Z,15.60
2018-05-19T17:08:24.307Z,15.70
2018-05-19T17:10:51.749Z,15.60
2018-05-19T17:13:19.992Z,15.60
2018-05-19T17:15:47.530Z,15.60
2018-05-19T17:18:14.991Z,15.60
2018-05-19T17:20:42.440Z,15.50
2018-05-19T17:23:09.894Z,15.50
2018-05-19T17:25:37.327Z,15.50
2018-05-19T17:28:04.899Z,15.50
2018-05-19T17:30:32.326Z,15.50
2018-05-19T17:33:00.523Z,15.50
2018-05-19T17:35:27.959Z,15.40
2018-05-19T17:37:56.188Z,15.40
2018-05-19T17:40:23.611Z,15.40
2018-05-19T17:42:51.063Z,15.40
2018-05-19T17:45:18.556Z,15.30
2018-05-19T17:47:46.015Z,15.30
2018-05-19T17:50:13.456Z,15.20
2018-05-19T17:52:40.879Z,15.30
2018-05-19T17:55:09.218Z,15.30
2018-05-19T17:57:36.701Z,15.30
2018-05-19T18:00:04.144Z,15.30
2018-05-19T18:02:31.591Z,15.30
2018-05-19T18:04:59.019Z,15.20
2018-05-19T18:07:26.562Z,15.20
2018-05-19T18:09:54.047Z,15.20
2018-05-19T18:12:21.544Z,15.20
2018-05-19T18:14:49.063Z,15.20
2018-05-19T18:17:16.496Z,15.10
2018-05-19T18:19:43.953Z,15.10
2018-05-19T18:22:11.409Z,15.10
2018-05-19T18:24:38.857Z,15.10
2018-05-19T18:27:07.059Z,15.00
2018-05-19T18:29:34.657Z,15.00
2018-05-19T18:32:01.968Z,15.00
2018-05-19T18:34:29.443Z,15.00
2018-05-19T18:36:56.891Z,14.90
2018-05-19T18:39:24.355Z,14.90
2018-05-19T18:41:51.783Z,14.90
2018-05-19T18:44:19.275Z,14.80
2018-05-19T18:46:46.703Z,14.80
2018-05-19T18:49:14.186Z,14.90
2018-05-19T18:51:45.475Z,14.90
2018-05-19T18:54:12.862Z,14.90
2018-05-19T18:56:40.307Z,14.90
2018-05-19T18:59:08.531Z,15.00
2018-05-19T19:01:35.971Z,14.90
2018-05-19T19:04:03.411Z,14.90
2018-05-19T19:06:30.860Z,14.90
2018-05-19T19:08:58.355Z,14.90
2018-05-19T19:11:25.811Z,14.90
2018-05-19T19:13:53.272Z,14.90
2018-05-19T19:16:20.691Z,14.90
2018-05-19T19:18:48.135Z,14.80
2018-05-19T19:21:16.455Z,14.90
2018-05-19T19:23:43.908Z,14.90
2018-05-19T19:26:11.400Z,14.90
2018-05-19T19:28:38.856Z,14.90
2018-05-19T19:31:06.301Z,14.80
2018-05-19T19:33:33.748Z,14.80
2018-05-19T19:36:01.198Z,14.70
2018-05-19T19:38:28.660Z,14.60
2018-05-19T19:40:56.099Z,14.60
2018-05-19T19:43:23.535Z,14.50
2018-05-19T19:45:50.977Z,14.50
2018-05-19T19:48:19.263Z,14.40
2018-05-19T19:50:46.664Z,14.30
2018-05-19T19:53:14.102Z,14.30
2018-05-19T19:55:41.534Z,14.20
2018-05-19T19:58:09.035Z,14.10
2018-05-19T20:00:36.487Z,14.00
2018-05-19T20:03:03.948Z,13.90
2018-05-19T20:05:31.399Z,13.80
2018-05-19T20:07:58.871Z,13.80
2018-05-19T20:10:26.421Z,13.70
2018-05-19T20:12:53.850Z,13.70
2018-05-19T20:15:21.337Z,13.60
2018-05-19T20:17:48.811Z,13.60
2018-05-19T20:20:16.367Z,13.50
2018-05-19T20:22:43.807Z,13.50
2018-05-19T20:25:11.247Z,13.50
2018-05-19T20:27:38.695Z,13.40
2018-05-19T20:30:06.140Z,13.40
2018-05-19T20:32:34.360Z,13.20
2018-05-19T20:35:01.815Z,13.10
2018-05-19T20:37:29.278Z,13.00
2018-05-19T20:39:56.711Z,13.00
2018-05-19T20:42:24.148Z,12.90
2018-05-19T20:44:51.575Z,12.90
2018-05-19T20:47:19.800Z,12.80
2018-05-19T20:49:47.285Z,12.80
2018-05-19T20:52:15.671Z,12.80
2018-05-19T20:54:43.211Z,12.70
2018-05-19T20:57:11.268Z,12.70
2018-05-19T20:59:38.738Z,12.60
2018-05-19T21:02:06.183Z,12.50
2018-05-19T21:04:33.627Z,12.40
2018-05-19T21:07:01.116Z,12.40
2018-05-19T21:09:28.555Z,12.30
2018-05-19T21:11:56.014Z,12.20
2018-05-19T21:14:23.454Z,12.10
2018-05-19T21:16:50.895Z,12.00
2018-05-19T21:19:19.118Z,12.00
2018-05-19T21:21:46.586Z,12.00
2018-05-19T21:24:14.117Z,12.00
2018-05-19T21:26:41.610Z,12.00
2018-05-19T21:29:09.050Z,11.90
2018-05-19T21:31:36.507Z,11.90
2018-05-19T21:34:03.963Z,11.90
2018-05-19T21:36:31.525Z,11.80
2018-05-19T21:38:58.967Z,11.80
2018-05-19T21:41:26.449Z,11.70
2018-05-19T21:43:53.881Z,11.70
2018-05-19T21:46:21.318Z,11.50
2018-05-19T21:48:48.767Z,11.50
2018-05-19T21:51:16.990Z,11.40
2018-05-19T21:53:44.471Z,11.40
2018-05-19T21:56:11.908Z,11.40
2018-05-19T21:58:39.511Z,11.40
2018-05-19T22:01:07.773Z,11.40
2018-05-19T22:03:35.198Z,11.30
2018-05-19T22:06:02.642Z,11.30
2018-05-19T22:08:30.080Z,11.20
2018-05-19T22:10:57.556Z,11.20
2018-05-19T22:13:25.011Z,11.20
2018-05-19T22:15:52.473Z,11.20
2018-05-19T22:18:20.795Z,11.10
2018-05-19T22:20:49.072Z,10.90
2018-05-19T22:23:16.499Z,10.90
2018-05-19T22:25:44.045Z,10.90
2018-05-19T22:28:11.499Z,10.70
2018-05-19T22:30:38.931Z,10.60
2018-05-19T22:33:06.367Z,10.60
2018-05-19T22:35:34.579Z,10.60
2018-05-19T22:38:02.060Z,10.60
2018-05-19T22:40:29.511Z,10.60
2018-05-19T22:42:56.947Z,10.60
2018-05-19T22:45:24.426Z,10.60
2018-05-19T22:47:51.903Z,10.50
2018-05-19T22:50:19.365Z,10.50
2018-05-19T22:52:46.927Z,10.40
2018-05-19T22:55:14.366Z,10.40
2018-05-19T22:57:41.923Z,10.40
2018-05-19T23:00:09.368Z,10.30
2018-05-19T23:02:36.859Z,10.30
2018-05-19T23:05:04.299Z,10.20
2018-05-19T23:07:31.739Z,10.20
2018-05-19T23:09:59.190Z,10.20
2018-05-19T23:12:26.626Z,10.20
2018-05-19T23:14:54.711Z,10.20
2018-05-19T23:17:22.149Z,10.20
2018-05-19T23:19:49.588Z,10.10
2018-05-19T23:22:17.019Z,10.10
2018-05-19T23:24:45.309Z,9.90
2018-05-19T23:27:12.735Z,9.90
2018-05-19T23:29:40.168Z,9.90
2018-05-19T23:32:07.595Z,9.80
2018-05-19T23:34:35.811Z,9.60
2018-05-19T23:37:03.250Z,9.60
2018-05-19T23:39:30.728Z,9.60
2018-05-19T23:41:58.180Z,9.60
2018-05-19T23:44:25.677Z,9.60
2018-05-19T23:46:53.089Z,9.60
2018-05-19T23:49:20.563Z,9.60
2018-05-19T23:51:48.023Z,9.60
2018-05-19T23:54:15.466Z,9.50
2018-05-19T23:56:42.941Z,9.40
2018-05-19T23:59:10.358Z,9.30
